Time;durP1;ratioP1;P1;durP2;ratioP2;P2;SDS_P1;SDS_P2;PMS_P1;PMS_P2;Temp;Humidity;BMP_temperature;BMP_pressure;BME280_temperature;BME280_humidity;BME280_pressure;Samples;Min_cycle;Max_cycle;Signal;HPM_P1;HPM_P2
2022/08/02 00:00:09;;;;;;;3.57;2.10;;;;;;;;;;5032852;28;20212;-82
2022/08/02 00:03:14;;;;;;;4.43;2.43;;;;;;;;;;5031997;28;20195;-82
2022/08/02 00:06:19;;;;;;;2.93;2.47;;;;;;;;;;5032187;28;20196;-83
2022/08/02 00:09:23;;;;;;;3.00;2.37;;;;;;;;;;5032898;28;20659;-82
2022/08/02 00:12:27;;;;;;;2.97;2.17;;;;;;;;;;5056660;28;20183;-82
2022/08/02 00:15:31;;;;;;;2.73;2.50;;;;;;;;;;5056603;28;20180;-82
2022/08/02 00:18:36;;;;;;;2.87;2.17;;;;;;;;;;5032966;28;20208;-82
2022/08/02 00:21:40;;;;;;;3.67;2.60;;;;;;;;;;5032405;28;20223;-82
2022/08/02 00:24:44;;;;;;;4.50;2.80;;;;;;;;;;5044062;28;20176;-82
2022/08/02 00:27:48;;;;;;;2.90;2.37;;;;;;;;;;5032485;28;20515;-82
2022/08/02 00:30:52;;;;;;;3.27;2.70;;;;;;;;;;5032316;28;20224;-81
2022/08/02 00:33:56;;;;;;;2.70;2.50;;;;;;;;;;5032065;28;20192;-82
2022/08/02 00:37:01;;;;;;;2.73;2.30;;;;;;;;;;5032674;28;20176;-81
2022/08/02 00:40:06;;;;;;;2.87;2.27;;;;;;;;;;5043616;28;20216;-82
2022/08/02 00:43:10;;;;;;;3.50;2.10;;;;;;;;;;5032461;28;20188;-82
2022/08/02 00:46:15;;;;;;;3.27;2.30;;;;;;;;;;5031979;28;20547;-81
2022/08/02 00:49:19;;;;;;;3.30;2.20;;;;;;;;;;5032033;28;20192;-81
2022/08/02 00:52:24;;;;;;;4.43;2.03;;;;;;;;;;5043532;28;20180;-81
2022/08/02 00:55:28;;;;;;;4.30;2.67;;;;;;;;;;5043029;28;20180;-83
2022/08/02 00:58:32;;;;;;;3.63;2.40;;;;;;;;;;5031959;28;20204;-81
2022/08/02 01:01:40;;;;;;;3.80;2.30;;;;;;;;;;5031583;28;20219;-82
2022/08/02 01:04:44;;;;;;;3.50;2.30;;;;;;;;;;5032734;28;20176;-82
2022/08/02 01:07:48;;;;;;;2.03;1.83;;;;;;;;;;5032034;28;20172;-81
2022/08/02 01:10:52;;;;;;;2.57;2.00;;;;;;;;;;5031731;28;20211;-82
2022/08/02 01:14:05;;;;;;;4.83;2.40;;;;;;;;;;5042421;28;20180;-81
2022/08/02 01:17:17;;;;;;;2.23;2.03;;;;;;;;;;5031679;28;20184;-81
2022/08/02 01:20:24;;;;;;;4.70;2.17;;;;;;;;;;5031019;28;20227;-81
2022/08/02 01:23:51;;;;;;;2.07;1.70;;;;;;;;;;5042459;28;20651;-81
2022/08/02 01:27:10;;;;;;;5.40;1.90;;;;;;;;;;5042853;28;20184;-82
2022/08/02 01:30:15;;;;;;;2.90;2.17;;;;;;;;;;5030949;28;20220;-81
2022/08/02 01:33:20;;;;;;;2.67;1.77;;;;;;;;;;5042892;28;20188;-81
2022/08/02 01:36:26;;;;;;;2.77;1.90;;;;;;;;;;5031417;28;20180;-82
2022/08/02 01:39:34;;;;;;;3.20;2.00;;;;;;;;;;5042335;28;20204;-81
2022/08/02 01:42:54;;;;;;;2.17;1.80;;;;;;;;;;5042608;28;20524;-81
2022/08/02 01:46:00;;;;;;;2.80;1.80;;;;;;;;;;5042521;28;20184;-81
2022/08/02 01:49:08;;;;;;;3.50;1.80;;;;;;;;;;5030927;28;20176;-82
2022/08/02 01:52:24;;;;;;;3.07;1.97;;;;;;;;;;5042900;28;20647;-81
2022/08/02 01:55:33;;;;;;;3.43;2.07;;;;;;;;;;5031045;28;20188;-81
2022/08/02 01:58:39;;;;;;;2.47;1.77;;;;;;;;;;5031100;28;20208;-81
2022/08/02 02:01:46;;;;;;;3.67;1.93;;;;;;;;;;5042076;28;20219;-82
2022/08/02 02:04:51;;;;;;;2.50;1.93;;;;;;;;;;5030809;28;20181;-82
2022/08/02 02:08:00;;;;;;;3.80;1.73;;;;;;;;;;5042403;28;20184;-82
2022/08/02 02:11:05;;;;;;;2.33;2.13;;;;;;;;;;5042699;28;20216;-81
2022/08/02 02:14:11;;;;;;;2.47;1.80;;;;;;;;;;5042306;28;20180;-82
2022/08/02 02:17:16;;;;;;;2.27;1.40;;;;;;;;;;5031036;28;20172;-81
2022/08/02 02:20:21;;;;;;;3.00;1.40;;;;;;;;;;5041960;28;20227;-81
2022/08/02 02:23:25;;;;;;;1.77;1.60;;;;;;;;;;5030794;28;20176;-81
2022/08/02 02:26:31;;;;;;;2.63;1.77;;;;;;;;;;5032307;28;20199;-81
2022/08/02 02:29:38;;;;;;;1.60;1.47;;;;;;;;;;5034670;28;20191;-81
2022/08/02 02:32:44;;;;;;;2.50;1.70;;;;;;;;;;5046079;28;20184;-82
2022/08/02 02:35:51;;;;;;;1.90;1.30;;;;;;;;;;5058502;28;20180;-82
2022/08/02 02:39:00;;;;;;;3.47;1.70;;;;;;;;;;5034766;28;20212;-82
2022/08/02 02:42:09;;;;;;;2.77;1.47;;;;;;;;;;5045963;28;20180;-82
2022/08/02 02:45:15;;;;;;;2.03;1.40;;;;;;;;;;5034565;28;20184;-82
2022/08/02 02:48:20;;;;;;;2.10;1.50;;;;;;;;;;5058154;28;20196;-81
2022/08/02 02:51:24;;;;;;;3.90;1.30;;;;;;;;;;5045852;28;20220;-81
2022/08/02 02:54:30;;;;;;;2.23;1.40;;;;;;;;;;5046278;28;20184;-82
2022/08/02 02:57:36;;;;;;;2.07;1.47;;;;;;;;;;5023302;28;20180;-82
2022/08/02 03:04:06;;;;;;;2.20;1.50;;;;;;;;;;5045125;28;20184;-81
2022/08/02 03:07:09;;;;;;;6.13;1.73;;;;;;;;;;5033998;28;20188;-82
2022/08/02 03:10:14;;;;;;;1.87;1.40;;;;;;;;;;5034057;28;20215;-81
2022/08/02 03:13:18;;;;;;;1.97;1.47;;;;;;;;;;5045721;28;20184;-81
2022/08/02 03:16:22;;;;;;;2.43;1.40;;;;;;;;;;5045460;28;20185;-81
2022/08/02 03:19:26;;;;;;;3.23;1.73;;;;;;;;;;5033551;28;20655;-81
2022/08/02 03:22:31;;;;;;;1.37;1.20;;;;;;;;;;5034126;28;20176;-81
2022/08/02 03:25:35;;;;;;;2.13;1.60;;;;;;;;;;5033676;28;20176;-82
2022/08/02 03:28:40;;;;;;;2.07;1.30;;;;;;;;;;5033762;28;20177;-82
2022/08/02 03:31:45;;;;;;;2.17;1.40;;;;;;;;;;5033669;28;20216;-81
2022/08/02 03:34:49;;;;;;;2.97;1.67;;;;;;;;;;5056168;28;20659;-82
2022/08/02 03:37:56;;;;;;;2.17;1.50;;;;;;;;;;5043812;28;20195;-81
2022/08/02 03:41:02;;;;;;;3.23;1.90;;;;;;;;;;5056812;28;20216;-82
2022/08/02 03:44:06;;;;;;;2.93;1.57;;;;;;;;;;5032416;28;20184;-81
2022/08/02 03:47:11;;;;;;;2.30;1.23;;;;;;;;;;5043884;28;20188;-81
2022/08/02 03:50:17;;;;;;;1.90;1.50;;;;;;;;;;5057293;28;20686;-81
2022/08/02 03:53:22;;;;;;;1.43;1.33;;;;;;;;;;5044151;28;20183;-81
2022/08/02 03:56:27;;;;;;;1.80;1.53;;;;;;;;;;5044266;28;20196;-81
2022/08/02 03:59:39;;;;;;;2.63;1.30;;;;;;;;;;5032652;28;20689;-81
2022/08/02 04:02:43;;;;;;;1.93;1.60;;;;;;;;;;5021847;28;20185;-82
2022/08/02 04:05:48;;;;;;;1.50;1.40;;;;;;;;;;5059255;28;20659;-85
2022/08/02 04:08:52;;;;;;;1.93;1.70;;;;;;;;;;5027214;28;20188;-85
2022/08/02 04:11:56;;;;;;;2.10;1.47;;;;;;;;;;5032481;28;20183;-86
2022/08/02 04:15:03;;;;;;;2.30;1.47;;;;;;;;;;5057995;28;20622;-86
2022/08/02 04:18:07;;;;;;;2.73;1.57;;;;;;;;;;5022670;28;20200;-85
2022/08/02 04:21:16;;;;;;;1.83;1.43;;;;;;;;;;5082830;22;20211;-88
2022/08/02 04:24:25;;;;;;;2.17;1.60;;;;;;;;;;5008027;28;20202;-88
2022/08/02 04:27:30;;;;;;;1.30;1.20;;;;;;;;;;4992734;28;20181;-88
2022/08/02 04:30:37;;;;;;;1.77;1.57;;;;;;;;;;4981007;28;20197;-88
2022/08/02 04:33:41;;;;;;;4.37;1.60;;;;;;;;;;4995375;28;20178;-88
2022/08/02 04:36:46;;;;;;;3.77;1.70;;;;;;;;;;4984206;28;20202;-88
2022/08/02 04:39:50;;;;;;;3.23;1.50;;;;;;;;;;5008043;28;20222;-89
2022/08/02 04:43:01;;;;;;;2.40;1.57;;;;;;;;;;5017345;28;20226;-88
2022/08/02 04:46:09;;;;;;;2.10;1.40;;;;;;;;;;5018324;28;20194;-88
2022/08/02 04:49:19;;;;;;;2.13;1.77;;;;;;;;;;4992043;28;20194;-88
2022/08/02 04:52:23;;;;;;;2.93;1.67;;;;;;;;;;5006187;28;20214;-88
2022/08/02 04:55:28;;;;;;;4.33;1.50;;;;;;;;;;4983692;28;20182;-88
2022/08/02 04:58:32;;;;;;;2.10;1.50;;;;;;;;;;4985517;28;20222;-88
2022/08/02 05:01:41;;;;;;;1.80;1.60;;;;;;;;;;5005917;28;20217;-88
2022/08/02 05:04:45;;;;;;;1.47;1.37;;;;;;;;;;5005752;28;20187;-88
2022/08/02 05:07:50;;;;;;;1.67;1.57;;;;;;;;;;5007864;28;20518;-92
2022/08/02 05:10:55;;;;;;;1.83;1.53;;;;;;;;;;4961640;28;20196;-88
2022/08/02 05:13:59;;;;;;;2.00;1.50;;;;;;;;;;4983222;28;20186;-88
2022/08/02 05:17:03;;;;;;;3.33;1.57;;;;;;;;;;5005960;28;20521;-88
2022/08/02 05:20:08;;;;;;;2.27;1.60;;;;;;;;;;4994982;28;20209;-88
2022/08/02 05:23:12;;;;;;;3.10;1.27;;;;;;;;;;5005319;28;20226;-88
2022/08/02 05:26:16;;;;;;;2.43;1.40;;;;;;;;;;4983185;28;20517;-88
2022/08/02 05:29:21;;;;;;;6.20;1.70;;;;;;;;;;4983144;28;20170;-89
2022/08/02 05:32:25;;;;;;;1.50;1.40;;;;;;;;;;4994221;28;20217;-89
2022/08/02 05:35:29;;;;;;;3.10;2.23;;;;;;;;;;4983123;28;20182;-89
2022/08/02 05:38:34;;;;;;;3.93;1.57;;;;;;;;;;4982755;28;20545;-88
2022/08/02 05:41:38;;;;;;;5.37;1.90;;;;;;;;;;4982716;28;20221;-87
2022/08/02 05:44:42;;;;;;;3.53;2.00;;;;;;;;;;5000785;28;20197;-88
2022/08/02 05:47:46;;;;;;;6.23;1.83;;;;;;;;;;5013804;28;20177;-86
2022/08/02 05:50:58;;;;;;;1.93;1.83;;;;;;;;;;5002264;28;20529;-86
2022/08/02 05:54:18;;;;;;;2.20;2.00;;;;;;;;;;5002358;28;20181;-86
2022/08/02 05:57:36;;;;;;;2.27;1.97;;;;;;;;;;4991326;28;20186;-86
2022/08/02 06:00:41;;;;;;;3.33;2.13;;;;;;;;;;5013109;28;20214;-85
2022/08/02 06:03:51;;;;;;;2.97;2.17;;;;;;;;;;5024726;28;20181;-86
2022/08/02 06:06:58;;;;;;;3.43;1.90;;;;;;;;;;5002220;28;20185;-86
2022/08/02 06:10:04;;;;;;;2.97;2.00;;;;;;;;;;4988093;28;20197;-86
2022/08/02 06:13:15;;;;;;;3.33;2.00;;;;;;;;;;4996748;28;20226;-86
2022/08/02 06:16:20;;;;;;;3.40;1.90;;;;;;;;;;4993765;28;20178;-86
2022/08/02 06:19:24;;;;;;;4.07;2.47;;;;;;;;;;4982357;28;20541;-86
2022/08/02 06:22:29;;;;;;;2.57;1.83;;;;;;;;;;4978937;28;20240;-86
2022/08/02 06:25:36;;;;;;;3.07;2.00;;;;;;;;;;5000778;28;20202;-86
2022/08/02 06:28:40;;;;;;;4.00;2.90;;;;;;;;;;4993277;28;20209;-86
2022/08/02 06:31:45;;;;;;;2.47;2.03;;;;;;;;;;4982319;28;20218;-86
2022/08/02 06:34:49;;;;;;;5.70;1.93;;;;;;;;;;4982962;28;20178;-86
2022/08/02 06:37:59;;;;;;;3.77;2.30;;;;;;;;;;4982567;28;20186;-86
2022/08/02 06:41:13;;;;;;;3.47;2.17;;;;;;;;;;4998215;28;20548;-86
2022/08/02 06:44:17;;;;;;;4.60;2.63;;;;;;;;;;4990855;28;20205;-86
2022/08/02 06:47:21;;;;;;;3.40;2.07;;;;;;;;;;5012924;28;20201;-86
2022/08/02 06:50:25;;;;;;;2.50;2.23;;;;;;;;;;5014534;28;20537;-86
2022/08/02 06:53:29;;;;;;;4.43;2.03;;;;;;;;;;4991031;28;20181;-86
2022/08/02 06:56:33;;;;;;;3.23;2.57;;;;;;;;;;5013710;28;20181;-86
2022/08/02 06:59:39;;;;;;;3.47;2.27;;;;;;;;;;4990430;28;20201;-87
2022/08/02 07:02:44;;;;;;;4.97;2.03;;;;;;;;;;5012435;28;20691;-86
2022/08/02 07:05:48;;;;;;;31.10;4.20;;;;;;;;;;5013314;28;20185;-85
2022/08/02 07:08:52;;;;;;;15.60;2.97;;;;;;;;;;4995839;28;20216;-86
2022/08/02 07:11:56;;;;;;;11.47;2.90;;;;;;;;;;5013943;28;20230;-86
2022/08/02 07:15:03;;;;;;;4.27;1.83;;;;;;;;;;5017048;28;20193;-86
2022/08/02 07:18:13;;;;;;;2.00;1.80;;;;;;;;;;4994808;28;20201;-86
2022/08/02 07:21:17;;;;;;;3.30;1.97;;;;;;;;;;5005911;28;20229;-85
2022/08/02 07:24:21;;;;;;;2.60;1.80;;;;;;;;;;5006413;28;20178;-85
2022/08/02 07:27:26;;;;;;;3.60;1.70;;;;;;;;;;5016858;28;20529;-86
2022/08/02 07:30:31;;;;;;;3.37;1.90;;;;;;;;;;4997958;28;20186;-86
2022/08/02 07:33:35;;;;;;;3.67;1.83;;;;;;;;;;4997217;28;20182;-85
2022/08/02 07:36:39;;;;;;;4.50;2.10;;;;;;;;;;4975154;28;20179;-85
2022/08/02 07:39:44;;;;;;;7.40;2.30;;;;;;;;;;4985522;28;20221;-85
2022/08/02 07:42:51;;;;;;;3.00;1.70;;;;;;;;;;4996405;28;20222;-85
2022/08/02 07:45:55;;;;;;;3.00;2.13;;;;;;;;;;4985268;28;20176;-85
2022/08/02 07:49:00;;;;;;;3.17;2.07;;;;;;;;;;4996511;28;20182;-85
2022/08/02 07:52:04;;;;;;;6.03;2.40;;;;;;;;;;4975098;28;20232;-85
2022/08/02 07:55:09;;;;;;;4.07;1.73;;;;;;;;;;5015879;28;20190;-86
2022/08/02 07:58:13;;;;;;;2.90;1.90;;;;;;;;;;5015976;28;20180;-85
2022/08/02 08:01:17;;;;;;;2.07;1.63;;;;;;;;;;5016243;28;20227;-86
2022/08/02 08:04:21;;;;;;;2.93;1.60;;;;;;;;;;4993014;28;20551;-85
2022/08/02 08:07:25;;;;;;;3.63;1.93;;;;;;;;;;4993141;28;20198;-86
2022/08/02 08:10:29;;;;;;;2.47;2.20;;;;;;;;;;4993174;28;20180;-86
2022/08/02 08:13:34;;;;;;;2.07;1.70;;;;;;;;;;5015345;28;20187;-88
2022/08/02 08:16:39;;;;;;;2.47;1.88;;;;;;;;;;5004733;28;20178;-83
2022/08/02 08:19:43;;;;;;;4.05;1.83;;;;;;;;;;4993312;28;20206;-83
2022/08/02 08:22:47;;;;;;;4.18;1.80;;;;;;;;;;4982021;28;20239;-84
2022/08/02 08:25:51;;;;;;;3.75;1.52;;;;;;;;;;4992885;28;20190;-83
2022/08/02 08:28:55;;;;;;;3.58;1.77;;;;;;;;;;5004541;28;20184;-84
2022/08/02 08:31:59;;;;;;;3.75;1.60;;;;;;;;;;5026269;28;20220;-83
2022/08/02 08:35:05;;;;;;;1.65;1.50;;;;;;;;;;4993008;28;20201;-84
2022/08/02 08:38:10;;;;;;;2.70;1.50;;;;;;;;;;5004000;28;20181;-84
2022/08/02 08:41:15;;;;;;;4.10;1.70;;;;;;;;;;5016007;28;20229;-84
2022/08/02 08:44:19;;;;;;;2.95;1.50;;;;;;;;;;5004394;28;20192;-84
2022/08/02 08:47:32;;;;;;;4.28;1.45;;;;;;;;;;4993348;28;20187;-84
2022/08/02 08:50:41;;;;;;;1.50;1.40;;;;;;;;;;5006084;28;20181;-83
2022/08/02 08:53:48;;;;;;;2.35;1.40;;;;;;;;;;4994563;28;20506;-84
2022/08/02 08:56:53;;;;;;;11.02;2.10;;;;;;;;;;5005532;28;20549;-83
2022/08/02 08:59:58;;;;;;;2.95;1.60;;;;;;;;;;4993653;28;20221;-83
2022/08/02 09:03:04;;;;;;;1.35;1.23;;;;;;;;;;4994208;28;20561;-84
2022/08/02 09:06:08;;;;;;;3.50;1.38;;;;;;;;;;4993842;28;20178;-84
2022/08/02 09:09:12;;;;;;;6.88;1.60;;;;;;;;;;4994490;28;20182;-84
2022/08/02 09:12:20;;;;;;;2.60;1.35;;;;;;;;;;5006140;28;20209;-85
2022/08/02 09:15:25;;;;;;;2.05;1.20;;;;;;;;;;5005139;28;20178;-86
2022/08/02 09:18:34;;;;;;;3.72;1.50;;;;;;;;;;5004087;28;20628;-86
2022/08/02 09:21:38;;;;;;;1.98;1.20;;;;;;;;;;5004180;28;20225;-86
2022/08/02 09:24:45;;;;;;;1.20;1.10;;;;;;;;;;5017714;28;20186;-86
2022/08/02 09:27:50;;;;;;;1.83;1.45;;;;;;;;;;5004196;28;20177;-86
2022/08/02 09:31:06;;;;;;;1.13;1.00;;;;;;;;;;4992901;28;20174;-85
2022/08/02 09:34:10;;;;;;;2.72;1.10;;;;;;;;;;5002931;28;20182;-86
2022/08/02 09:37:29;;;;;;;2.47;1.10;;;;;;;;;;5003140;28;20551;-86
2022/08/02 09:40:34;;;;;;;2.80;1.30;;;;;;;;;;4992691;28;20214;-86
2022/08/02 09:43:42;;;;;;;2.97;1.35;;;;;;;;;;4993033;28;20527;-86
2022/08/02 09:46:46;;;;;;;2.08;1.20;;;;;;;;;;4993078;28;20186;-86
2022/08/02 09:49:53;;;;;;;1.50;1.13;;;;;;;;;;5015064;28;20174;-89
2022/08/02 09:52:58;;;;;;;1.42;0.95;;;;;;;;;;5014026;28;20209;-86
2022/08/02 09:56:04;;;;;;;1.52;1.05;;;;;;;;;;5002363;28;20174;-86
2022/08/02 09:59:10;;;;;;;1.42;1.02;;;;;;;;;;4992309;28;20208;-86
2022/08/02 10:02:14;;;;;;;1.23;1.13;;;;;;;;;;4991415;28;20703;-86
2022/08/02 10:05:20;;;;;;;3.70;1.10;;;;;;;;;;4991308;28;20181;-86
2022/08/02 10:08:25;;;;;;;2.08;1.40;;;;;;;;;;5002693;28;20181;-86
2022/08/02 10:11:30;;;;;;;2.35;1.30;;;;;;;;;;5002402;28;20205;-86
2022/08/02 10:14:34;;;;;;;2.60;1.10;;;;;;;;;;4993341;28;20668;-86
2022/08/02 10:17:39;;;;;;;2.00;1.30;;;;;;;;;;4994063;28;20182;-86
2022/08/02 10:20:43;;;;;;;1.65;1.55;;;;;;;;;;4994563;28;20202;-87
2022/08/02 10:23:49;;;;;;;1.30;1.20;;;;;;;;;;4982842;28;20518;-86
2022/08/02 10:26:54;;;;;;;4.22;1.35;;;;;;;;;;4982596;28;20178;-86
2022/08/02 10:29:59;;;;;;;2.42;1.17;;;;;;;;;;4983793;28;20198;-85
2022/08/02 10:33:06;;;;;;;1.40;1.30;;;;;;;;;;5005216;28;20222;-86
2022/08/02 10:36:12;;;;;;;1.33;1.10;;;;;;;;;;4982154;28;20182;-87
2022/08/02 10:39:16;;;;;;;1.35;1.10;;;;;;;;;;4982513;28;20187;-86
2022/08/02 10:42:44;;;;;;;1.15;1.05;;;;;;;;;;4994755;28;20233;-86
2022/08/02 10:45:49;;;;;;;1.88;1.08;;;;;;;;;;4993552;28;20190;-86
2022/08/02 10:49:03;;;;;;;2.42;1.10;;;;;;;;;;4997840;28;20202;-86
2022/08/02 10:52:08;;;;;;;1.40;1.15;;;;;;;;;;4975351;28;20218;-84
2022/08/02 10:55:13;;;;;;;1.70;1.40;;;;;;;;;;4991456;28;20648;-86
2022/08/02 10:58:20;;;;;;;3.22;1.20;;;;;;;;;;5005264;28;20205;-85
2022/08/02 11:01:31;;;;;;;1.52;1.20;;;;;;;;;;5005228;28;20699;-86
2022/08/02 11:04:35;;;;;;;2.25;1.40;;;;;;;;;;5024183;22;20229;-86
2022/08/02 11:07:49;;;;;;;1.50;1.00;;;;;;;;;;4964109;28;20518;-87
2022/08/02 11:11:02;;;;;;;1.48;0.95;;;;;;;;;;5015884;28;20186;-87
2022/08/02 11:14:07;;;;;;;7.75;2.05;;;;;;;;;;5005146;28;20186;-87
2022/08/02 11:17:14;;;;;;;1.35;1.25;;;;;;;;;;4993470;28;20185;-86
2022/08/02 11:20:20;;;;;;;1.80;1.10;;;;;;;;;;5004687;28;20224;-86
2022/08/02 11:23:38;;;;;;;3.33;1.30;;;;;;;;;;4996431;28;20186;-86
2022/08/02 11:26:44;;;;;;;1.20;1.10;;;;;;;;;;4984794;28;20187;-86
2022/08/02 11:29:48;;;;;;;3.63;1.40;;;;;;;;;;4973811;28;20535;-85
2022/08/02 11:32:59;;;;;;;1.17;1.08;;;;;;;;;;4997268;28;20182;-86
2022/08/02 11:36:08;;;;;;;1.40;1.02;;;;;;;;;;4974135;28;20560;-86
2022/08/02 11:39:16;;;;;;;1.92;1.20;;;;;;;;;;4985495;28;20182;-86
2022/08/02 11:42:20;;;;;;;2.00;1.00;;;;;;;;;;4984967;28;20544;-86
2022/08/02 11:45:25;;;;;;;2.25;1.10;;;;;;;;;;4995926;28;20214;-86
2022/08/02 11:48:38;;;;;;;2.85;1.08;;;;;;;;;;4993186;28;20182;-86
2022/08/02 11:52:11;;;;;;;2.78;1.30;;;;;;;;;;5003946;28;20215;-86
2022/08/02 11:55:15;;;;;;;1.88;1.02;;;;;;;;;;5004171;28;20209;-86
2022/08/02 11:58:19;;;;;;;2.10;1.02;;;;;;;;;;5003299;28;20625;-86
2022/08/02 12:01:23;;;;;;;4.03;1.00;;;;;;;;;;5003941;28;20214;-86
2022/08/02 12:04:27;;;;;;;1.10;1.00;;;;;;;;;;4983912;28;20714;-85
2022/08/02 12:07:35;;;;;;;1.98;0.80;;;;;;;;;;4989804;28;20190;-86
2022/08/02 12:10:46;;;;;;;2.25;1.17;;;;;;;;;;4981671;28;20186;-86
2022/08/02 12:13:51;;;;;;;1.10;0.95;;;;;;;;;;4962343;28;20179;-86
2022/08/02 12:20:20;;;;;;;3.35;0.98;;;;;;;;;;4972869;28;20629;-86
2022/08/02 12:23:24;;;;;;;1.45;1.02;;;;;;;;;;4972777;28;20179;-86
2022/08/02 12:26:28;;;;;;;1.38;1.08;;;;;;;;;;4973902;28;20183;-86
2022/08/02 12:29:38;;;;;;;5.30;1.30;;;;;;;;;;4986774;28;20190;-86
2022/08/02 12:32:43;;;;;;;2.40;1.00;;;;;;;;;;4981469;28;20621;-86
2022/08/02 12:35:48;;;;;;;1.70;1.20;;;;;;;;;;5003106;28;20221;-86
2022/08/02 12:38:58;;;;;;;1.40;0.75;;;;;;;;;;5025789;28;20572;-86
2022/08/02 12:42:04;;;;;;;1.70;1.20;;;;;;;;;;4992336;28;20210;-86
2022/08/02 12:45:08;;;;;;;1.10;1.00;;;;;;;;;;5003374;28;20217;-86
2022/08/02 12:48:12;;;;;;;2.60;0.95;;;;;;;;;;4981061;28;20186;-86
2022/08/02 12:51:32;;;;;;;2.33;0.95;;;;;;;;;;5003114;28;20178;-86
2022/08/02 12:54:39;;;;;;;8.57;2.17;;;;;;;;;;4983443;28;20230;-86
2022/08/02 12:58:04;;;;;;;9.15;2.03;;;;;;;;;;4972147;28;20538;-85
2022/08/02 13:01:10;;;;;;;1.77;0.95;;;;;;;;;;4988468;28;20214;-86
2022/08/02 13:04:14;;;;;;;1.67;1.05;;;;;;;;;;4991660;28;20205;-88
2022/08/02 13:07:18;;;;;;;2.08;0.95;;;;;;;;;;5003231;28;20185;-87
2022/08/02 13:10:22;;;;;;;2.42;1.10;;;;;;;;;;5013840;28;20197;-86
2022/08/02 13:13:26;;;;;;;2.10;1.10;;;;;;;;;;4991626;28;20190;-85
2022/08/02 13:16:31;;;;;;;2.30;1.00;;;;;;;;;;4992099;28;20194;-87
2022/08/02 13:19:37;;;;;;;5.07;1.33;;;;;;;;;;5002674;28;20653;-87
2022/08/02 13:22:41;;;;;;;1.35;0.90;;;;;;;;;;4981182;28;20218;-83
2022/08/02 13:25:46;;;;;;;3.53;1.10;;;;;;;;;;4996294;28;20226;-82
2022/08/02 13:28:50;;;;;;;2.55;0.95;;;;;;;;;;4995911;28;20178;-84
2022/08/02 13:31:54;;;;;;;1.85;0.98;;;;;;;;;;4983186;28;20515;-88
2022/08/02 13:34:58;;;;;;;4.97;1.10;;;;;;;;;;4983052;28;20222;-88
2022/08/02 13:38:03;;;;;;;1.02;0.73;;;;;;;;;;4971415;28;20179;-86
2022/08/02 13:41:07;;;;;;;2.00;0.95;;;;;;;;;;4982839;28;20183;-86
2022/08/02 13:44:11;;;;;;;1.50;1.10;;;;;;;;;;4971563;28;20187;-87
2022/08/02 13:47:16;;;;;;;3.65;1.00;;;;;;;;;;4984036;28;20194;-87
2022/08/02 13:50:20;;;;;;;9.43;2.00;;;;;;;;;;4960294;28;20547;-87
2022/08/02 13:53:25;;;;;;;1.95;0.80;;;;;;;;;;4971668;28;20182;-87
2022/08/02 13:56:29;;;;;;;1.20;0.70;;;;;;;;;;4982729;28;20186;-87
2022/08/02 13:59:33;;;;;;;1.27;1.00;;;;;;;;;;4993594;28;20178;-87
2022/08/02 14:02:37;;;;;;;3.65;1.00;;;;;;;;;;4982300;28;20210;-87
2022/08/02 14:05:42;;;;;;;3.83;1.10;;;;;;;;;;4990474;28;20226;-87
2022/08/02 14:08:47;;;;;;;1.27;1.10;;;;;;;;;;5004159;28;20205;-86
2022/08/02 14:11:51;;;;;;;3.55;1.13;;;;;;;;;;4961026;28;20190;-86
2022/08/02 14:14:55;;;;;;;1.15;0.70;;;;;;;;;;4982009;28;20217;-86
2022/08/02 14:17:59;;;;;;;2.20;0.70;;;;;;;;;;4971650;28;20186;-87
2022/08/02 14:21:03;;;;;;;2.20;1.05;;;;;;;;;;4971481;28;20522;-88
2022/08/02 14:24:07;;;;;;;4.28;1.38;;;;;;;;;;4982265;28;20220;-87
2022/08/02 14:27:12;;;;;;;1.13;0.90;;;;;;;;;;4982463;28;20652;-88
2022/08/02 14:30:16;;;;;;;3.60;1.02;;;;;;;;;;4971471;28;20569;-87
2022/08/02 14:33:22;;;;;;;1.02;0.93;;;;;;;;;;4971555;28;20178;-87
2022/08/02 14:36:26;;;;;;;1.20;0.85;;;;;;;;;;4982979;28;20637;-87
2022/08/02 14:39:30;;;;;;;1.33;0.90;;;;;;;;;;4984341;28;20209;-87
2022/08/02 14:42:35;;;;;;;4.30;1.17;;;;;;;;;;4990949;28;20221;-87
2022/08/02 14:45:39;;;;;;;3.97;1.20;;;;;;;;;;4980100;28;20213;-87
2022/08/02 14:48:53;;;;;;;5.18;1.10;;;;;;;;;;4980281;28;20529;-87
2022/08/02 14:52:13;;;;;;;2.63;0.90;;;;;;;;;;5002686;28;20186;-87
2022/08/02 14:55:19;;;;;;;1.08;0.90;;;;;;;;;;5001880;28;20217;-88
2022/08/02 14:58:41;;;;;;;1.75;0.85;;;;;;;;;;5004924;28;20186;-87
2022/08/02 15:02:07;;;;;;;1.35;0.88;;;;;;;;;;5002475;28;20209;-88
2022/08/02 15:05:16;;;;;;;1.27;1.00;;;;;;;;;;4982753;28;20226;-87
2022/08/02 15:08:23;;;;;;;1.83;1.00;;;;;;;;;;4965525;28;20649;-87
2022/08/02 15:11:40;;;;;;;;;;;;;;;;;;;;;
2022/08/02 15:14:47;;;;;;;2.08;1.00;;;;;;;;;;4982619;28;20210;-87
2022/08/02 15:23:02;;;;;;;2.83;1.10;;;;;;;;;;5020291;28;20206;-87
2022/08/02 15:26:06;;;;;;;1.15;1.05;;;;;;;;;;4991111;28;20225;-84
2022/08/02 15:29:11;;;;;;;1.35;0.80;;;;;;;;;;4970516;28;20179;-87
2022/08/02 15:32:18;;;;;;;1.48;0.90;;;;;;;;;;4970558;28;20510;-87
2022/08/02 15:35:22;;;;;;;2.25;0.90;;;;;;;;;;4981301;28;20217;-87
2022/08/02 15:38:26;;;;;;;2.50;1.10;;;;;;;;;;5004881;28;20516;-87
2022/08/02 15:41:30;;;;;;;23.20;2.13;;;;;;;;;;4977456;28;20182;-87
2022/08/02 15:44:35;;;;;;;7.00;1.17;;;;;;;;;;4973847;28;20225;-86
2022/08/02 15:47:39;;;;;;;1.55;0.90;;;;;;;;;;4984941;28;20530;-86
2022/08/02 15:50:43;;;;;;;1.42;0.85;;;;;;;;;;4974169;28;20187;-87
2022/08/02 15:53:47;;;;;;;1.40;1.02;;;;;;;;;;4996072;28;20175;-87
2022/08/02 15:56:51;;;;;;;1.52;0.82;;;;;;;;;;4984580;28;20178;-86
2022/08/02 15:59:55;;;;;;;2.92;1.10;;;;;;;;;;4973998;28;20685;-86
2022/08/02 16:03:00;;;;;;;1.40;0.93;;;;;;;;;;4973739;28;20226;-87
2022/08/02 16:06:04;;;;;;;3.75;0.90;;;;;;;;;;4973940;28;20226;-86
2022/08/02 16:09:08;;;;;;;4.35;0.93;;;;;;;;;;4996018;28;20198;-88
2022/08/02 16:12:12;;;;;;;7.28;1.20;;;;;;;;;;4962585;28;20206;-86
2022/08/02 16:15:16;;;;;;;1.88;0.77;;;;;;;;;;4962906;28;20214;-85
2022/08/02 16:18:20;;;;;;;2.08;0.70;;;;;;;;;;4992719;28;20660;-86
2022/08/02 16:21:25;;;;;;;1.42;0.70;;;;;;;;;;4981822;28;20182;-86
2022/08/02 16:24:29;;;;;;;1.50;1.00;;;;;;;;;;4991908;28;20221;-86
2022/08/02 16:27:33;;;;;;;1.00;0.90;;;;;;;;;;4992862;28;20510;-87
2022/08/02 16:30:37;;;;;;;0.82;0.70;;;;;;;;;;5003494;28;20178;-86
2022/08/02 16:33:41;;;;;;;3.47;1.00;;;;;;;;;;4966756;28;20175;-86
2022/08/02 16:36:45;;;;;;;3.58;1.02;;;;;;;;;;4984445;28;20182;-86
2022/08/02 16:39:49;;;;;;;2.92;1.00;;;;;;;;;;4995203;28;20532;-85
2022/08/02 16:42:53;;;;;;;2.75;0.93;;;;;;;;;;4984009;28;20203;-87
2022/08/02 16:45:57;;;;;;;3.65;2.30;;;;;;;;;;4991744;28;20217;-88
2022/08/02 16:49:01;;;;;;;1.33;1.00;;;;;;;;;;5003240;28;20662;-87
2022/08/02 16:52:05;;;;;;;3.42;1.95;;;;;;;;;;4980714;28;20198;-87
2022/08/02 16:55:10;;;;;;;8.05;1.50;;;;;;;;;;4981057;28;20213;-86
2022/08/02 16:58:14;;;;;;;3.20;1.27;;;;;;;;;;4992037;28;20186;-86
2022/08/02 17:01:18;;;;;;;2.03;0.88;;;;;;;;;;4992592;28;20181;-86
2022/08/02 17:04:22;;;;;;;2.70;0.80;;;;;;;;;;5014466;28;20219;-86
2022/08/02 17:07:26;;;;;;;1.00;0.80;;;;;;;;;;5014688;28;20521;-87
2022/08/02 17:10:32;;;;;;;0.77;0.77;;;;;;;;;;4980587;28;20183;-86
2022/08/02 17:13:37;;;;;;;1.42;0.90;;;;;;;;;;4981217;28;20180;-85
2022/08/02 17:16:40;;;;;;;1.90;0.80;;;;;;;;;;5003113;28;20548;-86
2022/08/02 17:19:44;;;;;;;0.60;0.60;;;;;;;;;;5002895;28;20549;-86
2022/08/02 17:22:49;;;;;;;3.35;0.68;;;;;;;;;;4980616;28;20214;-86
2022/08/02 17:25:53;;;;;;;1.00;0.70;;;;;;;;;;4980006;28;20220;-86
2022/08/02 17:28:57;;;;;;;2.30;0.70;;;;;;;;;;5002502;28;20192;-85
2022/08/02 17:32:02;;;;;;;1.23;0.80;;;;;;;;;;4980419;28;20184;-86
2022/08/02 17:35:06;;;;;;;2.15;0.90;;;;;;;;;;4990878;28;20220;-86
2022/08/02 17:38:10;;;;;;;2.15;0.70;;;;;;;;;;4991457;28;20179;-86
2022/08/02 17:41:15;;;;;;;3.88;1.00;;;;;;;;;;4979713;28;20204;-85
2022/08/02 17:44:19;;;;;;;2.40;0.90;;;;;;;;;;4990739;28;20233;-85
2022/08/02 17:47:24;;;;;;;2.10;1.00;;;;;;;;;;4990821;28;20195;-85
2022/08/02 17:50:28;;;;;;;0.90;0.80;;;;;;;;;;5001963;28;20203;-85
2022/08/02 17:53:32;;;;;;;1.02;0.80;;;;;;;;;;5001786;28;20203;-86
2022/08/02 17:56:37;;;;;;;2.45;0.88;;;;;;;;;;5012427;28;20199;-86
2022/08/02 17:59:53;;;;;;;0.90;0.77;;;;;;;;;;4980219;28;20183;-85
2022/08/02 18:02:57;;;;;;;1.08;0.80;;;;;;;;;;5004707;28;20672;-85
2022/08/02 18:06:02;;;;;;;2.47;0.77;;;;;;;;;;4993651;28;20228;-86
2022/08/02 18:09:07;;;;;;;1.38;0.90;;;;;;;;;;4993654;28;20180;-86
2022/08/02 18:12:12;;;;;;;1.65;0.80;;;;;;;;;;4982630;28;20197;-86
2022/08/02 18:15:17;;;;;;;1.40;0.70;;;;;;;;;;4960012;28;20216;-86
2022/08/02 18:18:21;;;;;;;4.10;0.85;;;;;;;;;;4971104;28;20213;-86
2022/08/02 18:21:26;;;;;;;2.13;0.77;;;;;;;;;;4993492;28;20178;-86
2022/08/02 18:24:30;;;;;;;2.22;0.98;;;;;;;;;;4970677;28;20705;-85
2022/08/02 18:27:34;;;;;;;1.58;0.90;;;;;;;;;;4974528;28;20665;-85
2022/08/02 18:30:38;;;;;;;1.65;1.13;;;;;;;;;;5001742;28;20193;-85
2022/08/02 18:33:42;;;;;;;1.42;1.15;;;;;;;;;;5001360;28;20196;-85
2022/08/02 18:36:47;;;;;;;1.20;0.90;;;;;;;;;;4959982;28;20202;-85
2022/08/02 18:39:51;;;;;;;2.55;0.90;;;;;;;;;;4982069;28;20633;-85
2022/08/02 18:42:56;;;;;;;1.55;0.95;;;;;;;;;;4989663;28;20210;-85
2022/08/02 18:46:07;;;;;;;1.92;0.95;;;;;;;;;;4970921;28;20214;-85